Flight Track Log - Related Links

Times and Time Zones

All times are in EDT time to prevent confusion due to time zone crossing. See the RPA3247 flight status page for this flight to view local times or setup timezone preferences in your user account.

Time Position Orientation Groundspeed Altitude Reporting Facility
EDT Latitude Longitude Course Direction KTS MPH feet Rate Location/Type
Wed 10:55:57 PM 38.7667 -77.0333 180° South 196 226 2,900  Level Potomac TRACON
Wed 10:56:00 PM 38.6852 -77.3463 237° Southwest  Level FlightAware Approximate
Wed 10:56:57 PM 38.7000 -77.0667 201° Southwest 267 307 4,900  Level Potomac TRACON
Wed 10:57:00 PM 38.6266 -77.4494 234° Southwest  Level FlightAware Approximate
Wed 10:58:00 PM 38.5841 -77.5642 247° West  Level FlightAware Approximate
Wed 10:58:03 PM 38.6833 -77.1667 258° West 276 318 6,400  Level Potomac TRACON
Wed 10:59:00 PM 38.5283 -77.6695 233° Southwest  Level FlightAware Approximate
Wed 10:59:03 PM 38.6667 -77.2500 256° West 280 322 9,600  Level Potomac TRACON
Wed 11:00:00 PM 38.4661 -77.7677 236° Southwest  Level FlightAware Approximate
Wed 11:00:09 PM 38.6167 -77.3667 241° Southwest 330 380 11,400  Level Potomac TRACON
Wed 11:01:09 PM 38.5833 -77.4833 250° West 352 405 14,000 2,354 Climbing Potomac TRACON
Wed 11:02:19 PM 38.5442 -77.6144 249° West 383 441 16,500 2,063 Climbing Washington Center
Wed 11:03:17 PM 38.5044 -77.7328 247° West 383 441 18,400 2,017 Climbing Washington Center
Wed 11:04:18 PM 38.4544 -77.8481 241° Southwest 378 435 20,500 1,869 Climbing Washington Center
Wed 11:05:19 PM 38.4042 -77.9683 242° Southwest 383 441 22,200 1,664 Climbing Washington Center
Wed 11:06:17 PM 38.3517 -78.0911 241° Southwest 389 448 23,800 1,412 Climbing Washington Center
Wed 11:07:18 PM 38.3078 -78.1875 240° Southwest 389 448 25,000 1,289 Climbing Washington Center
Wed 11:08:18 PM 38.2419 -78.3411 241° Southwest 400 460 26,400 1,311 Climbing Washington Center
Wed 11:09:17 PM 38.1847 -78.4711 241° Southwest 412 474 27,600 1,210 Climbing Washington Center
Wed 11:10:17 PM 38.1292 -78.6036 242° Southwest 417 480 28,800 1,082 Climbing Washington Center
Wed 11:11:19 PM 38.0717 -78.7333 241° Southwest 427 491 29,800 600 Climbing Washington Center
Wed 11:12:17 PM 38.0100 -78.8519 237° Southwest 439 505 30,000 100 Climbing Washington Center
Wed 11:13:19 PM 37.9236 -78.9614 225° Southwest 444 511 30,000  Level Washington Center
Wed 11:14:17 PM 37.8328 -79.0731 224° Southwest 449 517 30,000  Level Washington Center
Wed 11:15:18 PM 37.7419 -79.1817 223° Southwest 454 522 30,000 800 Level Washington Center
Wed 11:16:17 PM 37.6406 -79.2975 222° Southwest 454 522 31,600 1,537 Climbing Washington Center
Wed 11:17:19 PM 37.5597 -79.4089 228° Southwest 442 509 33,100 1,475 Climbing Washington Center
Wed 11:18:19 PM 37.4975 -79.5314 237° Southwest 425 489 34,600 1,017 Climbing Washington Center
Wed 11:19:17 PM 37.4481 -79.6361 239° Southwest 402 463 35,100 458 Climbing Washington Center
Wed 11:20:17 PM 37.3828 -79.7764 240° Southwest 414 476 35,500 350 Climbing Washington Center
Wed 11:21:17 PM 37.3264 -79.8961 239° Southwest 414 476 35,800 248 Climbing Washington Center
Wed 11:22:18 PM 37.2675 -80.0208 239° Southwest 414 476 36,000 100 Climbing Washington Center
Wed 11:23:17 PM 37.2064 -80.1475 239° Southwest 414 476 36,000  Level Washington Center
Wed 11:24:18 PM 37.1472 -80.2744 240° Southwest 414 476 36,000  Level Washington Center
Wed 11:24:33 PM 37.1256 -80.3111 233° Southwest 425 489 36,000  Level Atlanta Center
Wed 11:25:33 PM 37.0689 -80.4361 240° Southwest 425 489 36,000  Level Atlanta Center
Wed 11:26:33 PM 37.0081 -80.5636 239° Southwest 425 489 36,000  Level Atlanta Center
Wed 11:27:33 PM 36.9447 -80.6883 238° Southwest 425 489 36,000  Level Atlanta Center
Wed 11:28:33 PM 36.8836 -80.8156 239° Southwest 425 489 36,000  Level Atlanta Center
Wed 11:29:33 PM 36.8300 -80.9294 240° Southwest 436 502 36,000  Level Atlanta Center
Wed 11:30:33 PM 36.7667 -81.0561 238° Southwest 436 502 36,000  Level Atlanta Center
Wed 11:31:33 PM 36.7089 -81.1800 240° Southwest 425 489 36,000  Level Atlanta Center
Wed 11:32:33 PM 36.6433 -81.3169 239° Southwest 425 489 36,000  Level Atlanta Center
Wed 11:33:33 PM 36.5814 -81.4431 239° Southwest 439 505 36,000  Level Atlanta Center
Wed 11:34:33 PM 36.5172 -81.5692 238° Southwest 430 495 36,000  Level Atlanta Center
Wed 11:35:33 PM 36.4572 -81.6950 239° Southwest 435 501 36,000  Level Atlanta Center
Wed 11:36:33 PM 36.3950 -81.8231 239° Southwest 435 501 36,000  Level Atlanta Center
Wed 11:37:33 PM 36.3364 -81.9356 237° Southwest 435 501 36,000  Level Atlanta Center
Wed 11:38:33 PM 36.2717 -82.0608 237° Southwest 435 501 36,000  Level Atlanta Center
Wed 11:39:33 PM 36.2031 -82.2017 239° Southwest 430 495 36,000  Level Atlanta Center
Wed 11:40:33 PM 36.1442 -82.3133 237° Southwest 440 506 36,000  Level Atlanta Center
Wed 11:41:33 PM 36.0811 -82.4406 239° Southwest 440 506 36,000  Level Atlanta Center
Wed 11:42:33 PM 36.0161 -82.5678 238° Southwest 440 506 36,000  Level Atlanta Center
Wed 11:43:33 PM 35.9508 -82.6972 238° Southwest 440 506 36,000  Level Atlanta Center
Wed 11:44:33 PM 35.8875 -82.8214 238° Southwest 435 501 36,000  Level Atlanta Center
Wed 11:45:33 PM 35.8239 -82.9478 238° Southwest 435 501 36,000  Level Atlanta Center
Wed 11:46:33 PM 35.7583 -83.0739 237° Southwest 435 501 36,000  Level Atlanta Center
Wed 11:47:33 PM 35.6925 -83.2000 237° Southwest 435 501 36,000  Level Atlanta Center
Wed 11:48:33 PM 35.6225 -83.3386 238° Southwest 435 501 36,000  Level Atlanta Center
Wed 11:49:33 PM 35.5542 -83.4619 236° Southwest 440 506 36,000  Level Atlanta Center
Wed 11:50:33 PM 35.4922 -83.5847 238° Southwest 435 501 36,000  Level Atlanta Center
Wed 11:51:33 PM 35.4258 -83.7125 238° Southwest 435 501 36,000  Level Atlanta Center
Wed 11:52:33 PM 35.3572 -83.8400 237° Southwest 435 501 36,000  Level Atlanta Center
Wed 11:53:33 PM 35.2925 -83.9650 238° Southwest 435 501 36,000  Level Atlanta Center
Wed 11:54:33 PM 35.2258 -84.0922 237° Southwest 435 501 36,000  Level Atlanta Center
Wed 11:55:33 PM 35.1569 -84.2167 236° Southwest 435 501 36,000  Level Atlanta Center
Wed 11:56:33 PM 35.1044 -84.3181 238° Southwest 435 501 36,000  Level Atlanta Center
Wed 11:57:33 PM 35.0311 -84.4522 236° Southwest 435 501 36,000  Level Atlanta Center
Wed 11:58:33 PM 34.9661 -84.5786 238° Southwest 440 506 36,000  Level Atlanta Center
Wed 11:59:33 PM 34.8964 -84.7022 236° Southwest 440 506 36,000  Level Atlanta Center
Thu 12:00:33 AM 34.8289 -84.8283 237° Southwest 440 506 36,000  Level Atlanta Center
Thu 12:01:33 AM 34.7614 -84.9542 237° Southwest 440 506 36,000  Level Atlanta Center
Thu 12:02:33 AM 34.6936 -85.0797 237° Southwest 440 506 36,000  Level Atlanta Center
Thu 12:03:33 AM 34.6236 -85.2000 235° Southwest 440 506 36,000  Level Atlanta Center
Thu 12:04:33 AM 34.5578 -85.3250 237° Southwest 440 506 36,000  Level Atlanta Center
Thu 12:05:33 AM 34.4894 -85.4475 236° Southwest 440 506 36,000  Level Atlanta Center
Thu 12:06:33 AM 34.4214 -85.5672 235° Southwest 435 501 36,000  Level Atlanta Center
Thu 12:07:33 AM 34.3508 -85.7019 238° Southwest 435 501 36,000  Level Atlanta Center
Thu 12:08:33 AM 34.2844 -85.8161 235° Southwest 430 495 36,000  Level Atlanta Center
Thu 12:09:33 AM 34.2181 -85.9328 235° Southwest 430 495 36,000  Level Atlanta Center
Thu 12:10:33 AM 34.1514 -86.0494 235° Southwest 424 488 36,000  Level Atlanta Center
Thu 12:11:33 AM 34.0847 -86.1708 236° Southwest 430 495 36,000  Level Atlanta Center
Thu 12:12:33 AM 34.0200 -86.2869 236° Southwest 430 495 36,000  Level Atlanta Center
Thu 12:13:33 AM 33.9511 -86.4028 234° Southwest 430 495 36,000  Level Atlanta Center
Thu 12:14:33 AM 33.8861 -86.5211 237° Southwest 430 495 36,000  Level Atlanta Center
Thu 12:15:33 AM 33.8256 -86.6244 235° Southwest 435 501 36,000  Level Atlanta Center
Thu 12:16:33 AM 33.7583 -86.7397 235° Southwest 435 501 36,000  Level Atlanta Center
Thu 12:17:33 AM 33.6931 -86.8575 236° Southwest 435 501 36,000  Level Atlanta Center
Thu 12:18:33 AM 33.6217 -86.9700 233° Southwest 430 495 36,000  Level Atlanta Center
Thu 12:19:33 AM 33.5481 -87.0797 231° Southwest 435 501 36,000  Level Atlanta Center
Thu 12:20:33 AM 33.4764 -87.1892 232° Southwest 430 495 36,000  Level Atlanta Center
Thu 12:21:33 AM 33.4025 -87.3008 232° Southwest 430 495 36,000  Level Atlanta Center
Thu 12:22:33 AM 33.3286 -87.4100 231° Southwest 430 495 36,000  Level Atlanta Center
Thu 12:24:32 AM 33.1847 -87.6269 232° Southwest 425 489 36,000  Level Memphis Center
Thu 12:25:32 AM 33.1097 -87.7358 231° Southwest 425 489 36,000  Level Memphis Center
Thu 12:26:32 AM 33.0369 -87.8469 232° Southwest 425 489 36,000  Level Memphis Center
Thu 12:27:32 AM 32.9597 -87.9631 232° Southwest 425 489 36,000  Level Memphis Center
Thu 12:28:32 AM 32.8867 -88.0714 231° Southwest 425 489 36,000  Level Memphis Center
Thu 12:29:32 AM 32.8114 -88.1797 230° Southwest 430 495 36,000  Level Memphis Center
Thu 12:30:32 AM 32.7361 -88.2853 230° Southwest 430 495 36,000  Level Memphis Center
Thu 12:31:32 AM 32.6647 -88.3931 232° Southwest 430 495 36,000  Level Memphis Center
Thu 12:32:32 AM 32.5911 -88.5006 231° Southwest 430 495 36,000  Level Memphis Center
Thu 12:33:32 AM 32.5175 -88.6081 231° Southwest 430 495 36,000  Level Memphis Center
Thu 12:34:32 AM 32.4439 -88.7153 231° Southwest 430 495 36,000  Level Memphis Center
Thu 12:35:32 AM 32.3658 -88.8200 229° Southwest 430 495 36,000  Level Memphis Center
Thu 12:36:32 AM 32.2750 -88.9078 219° Southwest 420 483 36,000  Level Memphis Center
Thu 12:37:32 AM 32.1822 -88.9975 219° Southwest 426 490 36,000  Level Memphis Center
Thu 12:38:32 AM 32.0914 -89.0872 220° Southwest 431 496 36,000 -150 Level Memphis Center
Thu 12:39:32 AM 31.9961 -89.1742 218° Southwest 431 496 35,700 -1,508 Descending Memphis Center
Thu 12:41:39 AM 31.8192 -89.3464 220° Southwest 428 493 31,300 -2,138 Descending Houston Center
Thu 12:42:40 AM 31.7258 -89.4339 219° Southwest 431 496 29,000 -1,636 Descending Houston Center
Thu 12:43:40 AM 31.6122 -89.5439 220° Southwest 445 512 28,000 -500 Descending Houston Center
Thu 12:44:40 AM 31.5311 -89.6214 219° Southwest 447 514 28,000  Level Houston Center
Thu 12:45:41 AM 31.4347 -89.7119 219° Southwest 447 514 28,000  Level Houston Center
Thu 12:46:41 AM 31.3403 -89.8019 219° Southwest 441 507 28,000 -850 Level Houston Center
Thu 12:47:41 AM 31.2450 -89.8928 219° Southwest 444 511 26,300 -1,983 Descending Houston Center
Thu 12:48:42 AM 31.1531 -89.9792 219° Southwest 431 496 24,000 -2,430 Descending Houston Center
Thu 12:49:42 AM 31.0447 -90.0800 219° Southwest 419 482 21,400 -2,350 Descending Houston Center
Thu 12:50:42 AM 30.9572 -90.1619 219° Southwest 407 468 19,300 -1,982 Descending Houston Center
Thu 12:51:31 AM 30.8817 -90.2147 211° Southwest 398 458 17,800 -2,083 Descending Houston Center
Thu 12:52:43 AM 30.7536 -90.2186 181° South 389 448 15,100 -2,182 Descending Houston Center
Thu 12:53:43 AM 30.6503 -90.1989 171° South 378 435 13,000 -1,950 Descending Houston Center
Thu 12:54:43 AM 30.5561 -90.1781 169° South 356 410 11,200 -1,537 Descending Houston Center
Thu 12:55:44 AM 30.4683 -90.1597 170° South 329 379 9,900 -1,438 Descending Houston Center
Thu 12:56:44 AM 30.3886 -90.1425 169° South 297 342 8,300 -1,600 Descending Houston Center
Thu 12:57:44 AM 30.3114 -90.1500 185° South 291 335 6,700 -1,550 Descending Houston Center
Thu 12:58:44 AM 30.2403 -90.1714 195° South 272 313 5,200 -1,488 Descending Houston Center
Thu 12:59:45 AM 30.1758 -90.1919 195° South 252 290 3,700 -1,339 Descending Houston Center
Thu 01:00:45 AM 30.1189 -90.2083 194° South 225 259 2,500 -1,091 Descending Houston Center
Thu 01:01:46 AM 30.0711 -90.2242 196° South 193 222 1,500 -893 Descending Houston Center
Thu 01:02:46 AM 30.0375 -90.2356 196° South 154 177 700 -600 Descending Houston Center
Thu 01:03:46 AM 30.0022 -90.2475 196° South 133 153 300 -400 Descending Houston Center

Login

Don't have an account? Register now (free) for customized features, flight alerts, and more!